sensor_id;sensor_type;location;lat;lon;timestamp;noise_LAeq;noise_LA_min;noise_LA_max;noise_LA01;noise_LA95
69620;Laerm;57654;51.434;5.984;2022-12-29T00:00:04;37.94;35.80;43.09;;
69620;Laerm;57654;51.434;5.984;2022-12-29T00:00:15;36.57;34.12;40.34;;
69620;Laerm;57654;51.434;5.984;2022-12-29T00:00:25;35.79;34.21;40.63;;
69620;Laerm;57654;51.434;5.984;2022-12-29T00:00:35;35.75;33.62;41.66;;
69620;Laerm;57654;51.434;5.984;2022-12-29T00:00:45;35.71;33.22;45.61;;
69620;Laerm;57654;51.434;5.984;2022-12-29T00:00:55;36.40;34.52;39.73;;
69620;Laerm;57654;51.434;5.984;2022-12-29T00:01:09;37.17;34.92;42.11;;
69620;Laerm;57654;51.434;5.984;2022-12-29T00:01:19;35.59;33.51;38.38;;
69620;Laerm;57654;51.434;5.984;2022-12-29T00:01:30;35.23;33.42;39.76;;
69620;Laerm;57654;51.434;5.984;2022-12-29T00:01:40;35.11;32.59;39.89;;
69620;Laerm;57654;51.434;5.984;2022-12-29T00:01:50;34.27;31.78;39.22;;
69620;Laerm;57654;51.434;5.984;2022-12-29T00:02:02;34.07;31.08;37.96;;
69620;Laerm;57654;51.434;5.984;2022-12-29T00:02:12;38.26;35.07;40.87;;
69620;Laerm;57654;51.434;5.984;2022-12-29T00:02:22;38.51;36.01;44.41;;
69620;Laerm;57654;51.434;5.984;2022-12-29T00:02:33;38.47;36.01;51.30;;
69620;Laerm;57654;51.434;5.984;2022-12-29T00:02:43;35.86;33.84;39.11;;
69620;Laerm;57654;51.434;5.984;2022-12-29T00:02:53;34.76;31.93;38.56;;
69620;Laerm;57654;51.434;5.984;2022-12-29T00:03:03;34.51;32.08;39.36;;
69620;Laerm;57654;51.434;5.984;2022-12-29T00:03:14;34.88;32.49;41.46;;
69620;Laerm;57654;51.434;5.984;2022-12-29T00:03:24;35.31;33.21;40.05;;
69620;Laerm;57654;51.434;5.984;2022-12-29T00:03:34;36.11;33.70;39.89;;
69620;Laerm;57654;51.434;5.984;2022-12-29T00:03:47;36.58;34.81;40.34;;
69620;Laerm;57654;51.434;5.984;2022-12-29T00:03:58;34.87;31.72;38.81;;
69620;Laerm;57654;51.434;5.984;2022-12-29T00:04:09;33.68;31.74;38.69;;
69620;Laerm;57654;51.434;5.984;2022-12-29T00:04:21;35.15;32.17;42.89;;
69620;Laerm;57654;51.434;5.984;2022-12-29T00:04:31;35.20;32.98;38.61;;
69620;Laerm;57654;51.434;5.984;2022-12-29T00:04:42;37.09;33.71;41.02;;
69620;Laerm;57654;51.434;5.984;2022-12-29T00:04:52;38.47;36.88;40.67;;
69620;Laerm;57654;51.434;5.984;2022-12-29T00:05:03;38.58;36.21;43.41;;
69620;Laerm;57654;51.434;5.984;2022-12-29T00:05:13;37.84;35.46;44.65;;
69620;Laerm;57654;51.434;5.984;2022-12-29T00:05:23;38.29;35.35;53.80;;
69620;Laerm;57654;51.434;5.984;2022-12-29T00:05:34;37.58;35.85;39.99;;
69620;Laerm;57654;51.434;5.984;2022-12-29T00:05:44;39.21;37.00;44.63;;
69620;Laerm;57654;51.434;5.984;2022-12-29T00:05:55;37.23;33.90;42.64;;
69620;Laerm;57654;51.434;5.984;2022-12-29T00:06:05;34.69;32.49;40.05;;
69620;Laerm;57654;51.434;5.984;2022-12-29T00:06:15;35.99;32.41;39.20;;
69620;Laerm;57654;51.434;5.984;2022-12-29T00:06:26;37.02;35.30;40.55;;
69620;Laerm;57654;51.434;5.984;2022-12-29T00:06:36;37.47;35.22;42.11;;
69620;Laerm;57654;51.434;5.984;2022-12-29T00:06:46;39.27;35.63;45.86;;
69620;Laerm;57654;51.434;5.984;2022-12-29T00:06:57;37.49;35.38;43.32;;
69620;Laerm;57654;51.434;5.984;2022-12-29T00:07:07;36.90;34.78;44.08;;
69620;Laerm;57654;51.434;5.984;2022-12-29T00:07:18;36.84;34.29;41.85;;
69620;Laerm;57654;51.434;5.984;2022-12-29T00:07:28;37.44;35.76;41.23;;
69620;Laerm;57654;51.434;5.984;2022-12-29T00:07:39;37.63;35.90;40.62;;
69620;Laerm;57654;51.434;5.984;2022-12-29T00:07:49;38.52;36.29;42.30;;
69620;Laerm;57654;51.434;5.984;2022-12-29T00:07:59;37.50;35.28;42.13;;
69620;Laerm;57654;51.434;5.984;2022-12-29T00:08:09;36.13;33.97;43.27;;
69620;Laerm;57654;51.434;5.984;2022-12-29T00:08:20;35.81;34.15;39.06;;
69620;Laerm;57654;51.434;5.984;2022-12-29T00:08:30;37.18;34.28;40.76;;
69620;Laerm;57654;51.434;5.984;2022-12-29T00:08:49;37.72;35.56;42.26;;
69620;Laerm;57654;51.434;5.984;2022-12-29T00:09:00;37.23;35.67;42.86;;
69620;Laerm;57654;51.434;5.984;2022-12-29T00:09:10;38.70;35.81;42.31;;
69620;Laerm;57654;51.434;5.984;2022-12-29T00:09:22;42.19;39.59;48.10;;
69620;Laerm;57654;51.434;5.984;2022-12-29T00:09:33;40.95;38.63;47.16;;
69620;Laerm;57654;51.434;5.984;2022-12-29T00:09:43;41.30;39.41;51.55;;
69620;Laerm;57654;51.434;5.984;2022-12-29T00:09:53;39.93;36.65;42.60;;
69620;Laerm;57654;51.434;5.984;2022-12-29T00:10:04;38.87;36.63;45.48;;
69620;Laerm;57654;51.434;5.984;2022-12-29T00:10:14;37.67;36.04;39.58;;
69620;Laerm;57654;51.434;5.984;2022-12-29T00:10:24;38.77;36.20;42.39;;
69620;Laerm;57654;51.434;5.984;2022-12-29T00:10:34;46.29;39.55;50.14;;
69620;Laerm;57654;51.434;5.984;2022-12-29T00:10:45;50.12;47.87;51.87;;
69620;Laerm;57654;51.434;5.984;2022-12-29T00:10:55;48.23;46.23;51.09;;
69620;Laerm;57654;51.434;5.984;2022-12-29T00:11:08;46.23;41.50;49.83;;
69620;Laerm;57654;51.434;5.984;2022-12-29T00:11:20;38.55;34.98;43.36;;
69620;Laerm;57654;51.434;5.984;2022-12-29T00:11:31;36.69;33.86;43.16;;
69620;Laerm;57654;51.434;5.984;2022-12-29T00:11:41;36.40;33.77;42.50;;
69620;Laerm;57654;51.434;5.984;2022-12-29T00:11:52;35.79;33.57;40.90;;
69620;Laerm;57654;51.434;5.984;2022-12-29T00:12:03;36.44;34.36;43.22;;
69620;Laerm;57654;51.434;5.984;2022-12-29T00:12:13;37.80;34.64;42.26;;
69620;Laerm;57654;51.434;5.984;2022-12-29T00:12:24;39.32;35.92;47.24;;
69620;Laerm;57654;51.434;5.984;2022-12-29T00:12:34;43.32;41.62;45.19;;
69620;Laerm;57654;51.434;5.984;2022-12-29T00:13:03;42.32;37.86;47.93;;
69620;Laerm;57654;51.434;5.984;2022-12-29T00:13:32;37.36;34.03;48.31;;
69620;Laerm;57654;51.434;5.984;2022-12-29T00:14:00;36.10;33.74;41.56;;
69620;Laerm;57654;51.434;5.984;2022-12-29T00:14:29;36.66;32.91;41.57;;
69620;Laerm;57654;51.434;5.984;2022-12-29T00:14:58;37.90;34.77;41.16;;
69620;Laerm;57654;51.434;5.984;2022-12-29T00:15:27;37.86;34.62;42.24;;
69620;Laerm;57654;51.434;5.984;2022-12-29T00:15:49;39.35;35.78;46.57;;
69620;Laerm;57654;51.434;5.984;2022-12-29T00:15:59;36.65;34.66;39.68;;
69620;Laerm;57654;51.434;5.984;2022-12-29T00:16:09;35.70;33.59;39.40;;
69620;Laerm;57654;51.434;5.984;2022-12-29T00:16:19;35.75;33.89;40.03;;
69620;Laerm;57654;51.434;5.984;2022-12-29T00:16:30;36.43;34.39;43.24;;
69620;Laerm;57654;51.434;5.984;2022-12-29T00:16:41;35.46;33.27;42.51;;
69620;Laerm;57654;51.434;5.984;2022-12-29T00:16:53;36.85;33.85;44.02;;
69620;Laerm;57654;51.434;5.984;2022-12-29T00:17:03;37.43;35.21;41.47;;
69620;Laerm;57654;51.434;5.984;2022-12-29T00:17:13;36.87;34.39;44.05;;
69620;Laerm;57654;51.434;5.984;2022-12-29T00:17:24;36.03;33.82;39.02;;
69620;Laerm;57654;51.434;5.984;2022-12-29T00:17:34;35.93;33.31;41.32;;
69620;Laerm;57654;51.434;5.984;2022-12-29T00:17:44;35.58;32.87;41.05;;
69620;Laerm;57654;51.434;5.984;2022-12-29T00:17:54;37.09;33.13;39.67;;
69620;Laerm;57654;51.434;5.984;2022-12-29T00:18:05;38.54;36.32;45.38;;
69620;Laerm;57654;51.434;5.984;2022-12-29T00:18:15;38.92;36.67;45.52;;
69620;Laerm;57654;51.434;5.984;2022-12-29T00:18:26;38.56;36.55;41.28;;
69620;Laerm;57654;51.434;5.984;2022-12-29T00:18:37;42.11;37.57;48.30;;
69620;Laerm;57654;51.434;5.984;2022-12-29T00:18:47;43.52;41.54;48.22;;
69620;Laerm;57654;51.434;5.984;2022-12-29T00:18:57;42.42;40.57;45.95;;
69620;Laerm;57654;51.434;5.984;2022-12-29T00:19:07;39.78;35.64;47.32;;
69620;Laerm;57654;51.434;5.984;2022-12-29T00:19:38;40.57;34.76;51.50;;
69620;Laerm;57654;51.434;5.984;2022-12-29T00:20:07;38.92;34.93;49.15;;
69620;Laerm;57654;51.434;5.984;2022-12-29T00:20:36;38.71;34.79;46.27;;
69620;Laerm;57654;51.434;5.984;2022-12-29T00:21:07;33.93;31.52;40.56;;
69620;Laerm;57654;51.434;5.984;2022-12-29T00:21:36;35.18;31.02;42.58;;
69620;Laerm;57654;51.434;5.984;2022-12-29T00:22:05;38.59;36.14;42.08;;
69620;Laerm;57654;51.434;5.984;2022-12-29T00:22:34;37.05;33.86;45.28;;
69620;Laerm;57654;51.434;5.984;2022-12-29T00:23:02;34.53;31.99;43.80;;
69620;Laerm;57654;51.434;5.984;2022-12-29T00:23:31;35.26;32.14;45.35;;
69620;Laerm;57654;51.434;5.984;2022-12-29T00:24:00;35.67;33.28;44.66;;
69620;Laerm;57654;51.434;5.984;2022-12-29T00:24:29;45.35;33.82;50.37;;
69620;Laerm;57654;51.434;5.984;2022-12-29T00:24:58;46.61;33.34;52.87;;
69620;Laerm;57654;51.434;5.984;2022-12-29T00:25:27;35.19;32.51;38.63;;
69620;Laerm;57654;51.434;5.984;2022-12-29T00:25:55;36.59;33.91;40.81;;
69620;Laerm;57654;51.434;5.984;2022-12-29T00:26:24;38.47;35.12;44.69;;
69620;Laerm;57654;51.434;5.984;2022-12-29T00:27:31;38.39;34.03;46.05;;
69620;Laerm;57654;51.434;5.984;2022-12-29T00:28:00;39.75;35.32;46.27;;
69620;Laerm;57654;51.434;5.984;2022-12-29T00:28:29;35.46;32.25;45.26;;
69620;Laerm;57654;51.434;5.984;2022-12-29T00:29:17;37.03;32.28;47.88;;
69620;Laerm;57654;51.434;5.984;2022-12-29T00:29:46;36.70;33.08;42.79;;
69620;Laerm;57654;51.434;5.984;2022-12-29T00:30:16;34.98;32.58;42.90;;
69620;Laerm;57654;51.434;5.984;2022-12-29T00:30:45;39.01;35.45;57.91;;
69620;Laerm;57654;51.434;5.984;2022-12-29T00:31:15;37.95;35.44;46.53;;
69620;Laerm;57654;51.434;5.984;2022-12-29T00:31:44;39.42;36.09;47.76;;
69620;Laerm;57654;51.434;5.984;2022-12-29T00:32:12;38.36;36.11;43.66;;
69620;Laerm;57654;51.434;5.984;2022-12-29T00:32:41;38.44;35.51;48.05;;
69620;Laerm;57654;51.434;5.984;2022-12-29T00:33:39;38.77;34.26;44.52;;
69620;Laerm;57654;51.434;5.984;2022-12-29T00:34:09;43.52;37.55;47.79;;
69620;Laerm;57654;51.434;5.984;2022-12-29T00:34:39;37.92;35.31;43.78;;
69620;Laerm;57654;51.434;5.984;2022-12-29T00:35:08;36.84;34.21;43.23;;
69620;Laerm;57654;51.434;5.984;2022-12-29T00:35:32;36.59;34.76;42.13;;
69620;Laerm;57654;51.434;5.984;2022-12-29T00:35:53;35.99;34.21;39.96;;
69620;Laerm;57654;51.434;5.984;2022-12-29T00:36:32;35.17;33.01;42.70;;
69620;Laerm;57654;51.434;5.984;2022-12-29T00:36:44;35.34;33.25;40.41;;
69620;Laerm;57654;51.434;5.984;2022-12-29T00:36:55;37.79;35.40;40.76;;
69620;Laerm;57654;51.434;5.984;2022-12-29T00:37:05;38.55;36.76;42.92;;
69620;Laerm;57654;51.434;5.984;2022-12-29T00:37:16;36.89;34.54;41.14;;
69620;Laerm;57654;51.434;5.984;2022-12-29T00:37:26;37.75;35.55;43.58;;
69620;Laerm;57654;51.434;5.984;2022-12-29T00:37:57;39.31;36.71;44.04;;
69620;Laerm;57654;51.434;5.984;2022-12-29T00:38:27;38.81;35.99;44.85;;
69620;Laerm;57654;51.434;5.984;2022-12-29T00:39:00;42.54;39.28;47.86;;
69620;Laerm;57654;51.434;5.984;2022-12-29T00:39:30;41.12;38.34;47.36;;
69620;Laerm;57654;51.434;5.984;2022-12-29T00:39:58;44.95;39.19;52.76;;
69620;Laerm;57654;51.434;5.984;2022-12-29T00:40:27;44.21;40.53;52.57;;
69620;Laerm;57654;51.434;5.984;2022-12-29T00:40:56;42.28;39.57;47.32;;
69620;Laerm;57654;51.434;5.984;2022-12-29T00:41:25;41.34;37.05;45.68;;
69620;Laerm;57654;51.434;5.984;2022-12-29T00:41:53;39.19;36.33;44.81;;
69620;Laerm;57654;51.434;5.984;2022-12-29T00:42:22;40.71;37.76;45.34;;
69620;Laerm;57654;51.434;5.984;2022-12-29T00:42:51;38.95;36.27;45.94;;
69620;Laerm;57654;51.434;5.984;2022-12-29T00:43:19;38.81;35.70;49.44;;
69620;Laerm;57654;51.434;5.984;2022-12-29T00:43:48;37.48;34.68;42.64;;
69620;Laerm;57654;51.434;5.984;2022-12-29T00:44:17;43.98;38.72;49.69;;
69620;Laerm;57654;51.434;5.984;2022-12-29T00:44:27;44.47;41.66;51.14;;
69620;Laerm;57654;51.434;5.984;2022-12-29T00:44:38;40.47;38.13;43.00;;
69620;Laerm;57654;51.434;5.984;2022-12-29T00:44:48;39.69;38.13;43.68;;
69620;Laerm;57654;51.434;5.984;2022-12-29T00:44:58;38.99;36.88;47.22;;
69620;Laerm;57654;51.434;5.984;2022-12-29T00:45:08;39.20;37.01;44.22;;
69620;Laerm;57654;51.434;5.984;2022-12-29T00:45:19;38.43;36.55;44.73;;
69620;Laerm;57654;51.434;5.984;2022-12-29T00:45:29;40.45;38.36;46.70;;
69620;Laerm;57654;51.434;5.984;2022-12-29T00:45:40;43.20;39.00;48.78;;
69620;Laerm;57654;51.434;5.984;2022-12-29T00:45:50;46.93;45.37;52.42;;
69620;Laerm;57654;51.434;5.984;2022-12-29T00:46:00;46.81;44.62;48.60;;
69620;Laerm;57654;51.434;5.984;2022-12-29T00:46:11;43.98;39.03;47.11;;
69620;Laerm;57654;51.434;5.984;2022-12-29T00:46:21;39.88;37.86;47.68;;
69620;Laerm;57654;51.434;5.984;2022-12-29T00:46:34;38.14;35.28;43.45;;
69620;Laerm;57654;51.434;5.984;2022-12-29T00:46:45;36.16;34.37;39.63;;
69620;Laerm;57654;51.434;5.984;2022-12-29T00:46:55;36.58;34.72;41.88;;
69620;Laerm;57654;51.434;5.984;2022-12-29T00:47:05;35.10;33.02;39.58;;
69620;Laerm;57654;51.434;5.984;2022-12-29T00:47:16;35.09;33.10;39.25;;
69620;Laerm;57654;51.434;5.984;2022-12-29T00:47:26;35.92;33.82;39.04;;
69620;Laerm;57654;51.434;5.984;2022-12-29T00:47:36;36.59;34.84;43.71;;
69620;Laerm;57654;51.434;5.984;2022-12-29T00:47:46;36.19;34.48;38.98;;
69620;Laerm;57654;51.434;5.984;2022-12-29T00:47:57;37.84;34.46;45.95;;
69620;Laerm;57654;51.434;5.984;2022-12-29T00:48:07;37.81;34.28;43.82;;
69620;Laerm;57654;51.434;5.984;2022-12-29T00:48:17;36.72;34.23;42.74;;
69620;Laerm;57654;51.434;5.984;2022-12-29T00:48:47;38.98;34.55;45.98;;
69620;Laerm;57654;51.434;5.984;2022-12-29T00:49:21;39.38;35.86;44.25;;
69620;Laerm;57654;51.434;5.984;2022-12-29T00:49:40;37.82;34.79;44.75;;
69620;Laerm;57654;51.434;5.984;2022-12-29T00:49:50;36.35;34.68;40.16;;
69620;Laerm;57654;51.434;5.984;2022-12-29T00:50:00;36.61;34.45;41.23;;
69620;Laerm;57654;51.434;5.984;2022-12-29T00:50:11;35.80;34.01;38.21;;
69620;Laerm;57654;51.434;5.984;2022-12-29T00:50:21;35.88;33.84;42.93;;
69620;Laerm;57654;51.434;5.984;2022-12-29T00:50:31;34.60;32.27;39.34;;
69620;Laerm;57654;51.434;5.984;2022-12-29T00:50:41;35.61;32.81;43.40;;
69620;Laerm;57654;51.434;5.984;2022-12-29T00:50:55;37.23;34.45;41.99;;
69620;Laerm;57654;51.434;5.984;2022-12-29T00:51:05;37.87;35.55;40.59;;
69620;Laerm;57654;51.434;5.984;2022-12-29T00:51:16;36.57;34.76;40.94;;
69620;Laerm;57654;51.434;5.984;2022-12-29T00:51:26;35.25;33.07;39.26;;
69620;Laerm;57654;51.434;5.984;2022-12-29T00:51:36;34.17;31.92;38.26;;
69620;Laerm;57654;51.434;5.984;2022-12-29T00:51:46;34.25;32.13;40.80;;
69620;Laerm;57654;51.434;5.984;2022-12-29T00:52:10;37.70;33.86;41.77;;
69620;Laerm;57654;51.434;5.984;2022-12-29T00:52:21;40.15;37.93;44.65;;
69620;Laerm;57654;51.434;5.984;2022-12-29T00:52:31;42.62;38.73;47.34;;
69620;Laerm;57654;51.434;5.984;2022-12-29T00:52:41;41.14;38.26;50.78;;
69620;Laerm;57654;51.434;5.984;2022-12-29T00:52:52;38.07;35.50;46.81;;
69620;Laerm;57654;51.434;5.984;2022-12-29T00:53:02;37.71;35.13;39.91;;
69620;Laerm;57654;51.434;5.984;2022-12-29T00:53:12;38.16;35.75;42.60;;
69620;Laerm;57654;51.434;5.984;2022-12-29T00:53:22;38.88;37.35;43.88;;
69620;Laerm;57654;51.434;5.984;2022-12-29T00:53:33;39.03;37.38;43.32;;
69620;Laerm;57654;51.434;5.984;2022-12-29T00:53:44;40.28;36.40;56.22;;
69620;Laerm;57654;51.434;5.984;2022-12-29T00:53:54;38.22;35.98;42.03;;
69620;Laerm;57654;51.434;5.984;2022-12-29T00:54:04;45.31;39.04;48.27;;
69620;Laerm;57654;51.434;5.984;2022-12-29T00:54:16;48.26;45.66;50.18;;
69620;Laerm;57654;51.434;5.984;2022-12-29T00:54:27;48.30;44.92;50.77;;
69620;Laerm;57654;51.434;5.984;2022-12-29T00:54:38;43.06;40.05;48.87;;
69620;Laerm;57654;51.434;5.984;2022-12-29T00:54:49;41.14;39.08;46.57;;
69620;Laerm;57654;51.434;5.984;2022-12-29T00:54:59;43.20;39.65;52.02;;
69620;Laerm;57654;51.434;5.984;2022-12-29T00:55:09;43.00;40.74;50.06;;
69620;Laerm;57654;51.434;5.984;2022-12-29T00:55:19;40.15;37.36;44.05;;
69620;Laerm;57654;51.434;5.984;2022-12-29T00:55:30;40.63;37.78;45.22;;
69620;Laerm;57654;51.434;5.984;2022-12-29T00:55:40;45.20;43.11;47.30;;
69620;Laerm;57654;51.434;5.984;2022-12-29T00:55:50;45.22;43.37;48.78;;
69620;Laerm;57654;51.434;5.984;2022-12-29T00:56:00;45.04;43.62;48.05;;
69620;Laerm;57654;51.434;5.984;2022-12-29T00:56:11;43.88;41.30;49.47;;
69620;Laerm;57654;51.434;5.984;2022-12-29T00:56:21;41.70;39.32;50.28;;
69620;Laerm;57654;51.434;5.984;2022-12-29T00:56:31;42.79;40.34;46.42;;
69620;Laerm;57654;51.434;5.984;2022-12-29T00:56:41;43.35;40.96;46.15;;
69620;Laerm;57654;51.434;5.984;2022-12-29T00:56:52;43.01;40.21;54.02;;
69620;Laerm;57654;51.434;5.984;2022-12-29T00:57:03;45.65;40.60;49.15;;
69620;Laerm;57654;51.434;5.984;2022-12-29T00:57:13;47.74;45.56;50.26;;
69620;Laerm;57654;51.434;5.984;2022-12-29T00:57:24;45.29;42.29;48.66;;
69620;Laerm;57654;51.434;5.984;2022-12-29T00:57:34;43.58;41.80;47.86;;
69620;Laerm;57654;51.434;5.984;2022-12-29T00:57:44;42.28;38.99;53.68;;
69620;Laerm;57654;51.434;5.984;2022-12-29T00:57:54;40.29;38.44;43.01;;
69620;Laerm;57654;51.434;5.984;2022-12-29T00:58:05;39.37;37.37;45.72;;
69620;Laerm;57654;51.434;5.984;2022-12-29T00:58:15;39.61;37.28;48.78;;
69620;Laerm;57654;51.434;5.984;2022-12-29T00:58:28;40.66;37.57;46.69;;
69620;Laerm;57654;51.434;5.984;2022-12-29T00:58:38;40.24;38.06;51.34;;
69620;Laerm;57654;51.434;5.984;2022-12-29T00:58:49;38.32;35.83;40.50;;
69620;Laerm;57654;51.434;5.984;2022-12-29T00:59:00;40.91;36.55;44.05;;
69620;Laerm;57654;51.434;5.984;2022-12-29T00:59:10;43.56;40.96;46.24;;
69620;Laerm;57654;51.434;5.984;2022-12-29T00:59:20;46.37;44.42;48.32;;
69620;Laerm;57654;51.434;5.984;2022-12-29T00:59:31;43.34;40.07;46.78;;
69620;Laerm;57654;51.434;5.984;2022-12-29T00:59:41;44.41;40.09;49.34;;
69620;Laerm;57654;51.434;5.984;2022-12-29T00:59:52;47.96;44.87;49.85;;
69620;Laerm;57654;51.434;5.984;2022-12-29T01:00:02;47.65;45.70;49.80;;
69620;Laerm;57654;51.434;5.984;2022-12-29T01:00:13;45.42;42.22;48.16;;
69620;Laerm;57654;51.434;5.984;2022-12-29T01:00:23;44.76;43.24;46.84;;
69620;Laerm;57654;51.434;5.984;2022-12-29T01:00:33;43.89;41.94;45.98;;
69620;Laerm;57654;51.434;5.984;2022-12-29T01:00:44;43.91;42.25;45.50;;
69620;Laerm;57654;51.434;5.984;2022-12-29T01:01:04;44.73;42.25;47.14;;
69620;Laerm;57654;51.434;5.984;2022-12-29T01:01:14;45.29;41.82;49.52;;
69620;Laerm;57654;51.434;5.984;2022-12-29T01:01:24;42.17;39.39;50.51;;
69620;Laerm;57654;51.434;5.984;2022-12-29T01:01:35;40.80;39.17;42.16;;
69620;Laerm;57654;51.434;5.984;2022-12-29T01:01:46;40.70;38.16;44.43;;
69620;Laerm;57654;51.434;5.984;2022-12-29T01:01:56;41.11;39.07;44.63;;
69620;Laerm;57654;51.434;5.984;2022-12-29T01:02:07;41.58;39.30;44.67;;
69620;Laerm;57654;51.434;5.984;2022-12-29T01:02:17;40.76;39.31;42.46;;
69620;Laerm;57654;51.434;5.984;2022-12-29T01:02:28;41.36;39.69;46.16;;
69620;Laerm;57654;51.434;5.984;2022-12-29T01:02:38;41.44;38.32;50.47;;
69620;Laerm;57654;51.434;5.984;2022-12-29T01:02:48;40.18;38.43;47.78;;
69620;Laerm;57654;51.434;5.984;2022-12-29T01:02:58;41.06;38.66;44.31;;
69620;Laerm;57654;51.434;5.984;2022-12-29T01:03:08;40.05;38.00;41.99;;
69620;Laerm;57654;51.434;5.984;2022-12-29T01:03:19;43.14;38.94;49.08;;
69620;Laerm;57654;51.434;5.984;2022-12-29T01:03:29;45.87;44.10;49.00;;
69620;Laerm;57654;51.434;5.984;2022-12-29T01:03:39;44.73;41.69;49.76;;
69620;Laerm;57654;51.434;5.984;2022-12-29T01:03:49;42.20;39.74;51.47;;
69620;Laerm;57654;51.434;5.984;2022-12-29T01:04:00;44.17;42.03;47.31;;
69620;Laerm;57654;51.434;5.984;2022-12-29T01:04:10;45.03;41.96;47.51;;
69620;Laerm;57654;51.434;5.984;2022-12-29T01:04:22;44.89;41.99;47.79;;
69620;Laerm;57654;51.434;5.984;2022-12-29T01:04:33;40.75;38.13;48.70;;
69620;Laerm;57654;51.434;5.984;2022-12-29T01:04:43;40.62;38.36;43.69;;
69620;Laerm;57654;51.434;5.984;2022-12-29T01:04:53;45.34;42.46;48.10;;
69620;Laerm;57654;51.434;5.984;2022-12-29T01:05:03;48.84;46.22;50.47;;
69620;Laerm;57654;51.434;5.984;2022-12-29T01:05:14;50.04;47.60;52.23;;
69620;Laerm;57654;51.434;5.984;2022-12-29T01:05:24;44.73;39.04;49.38;;
69620;Laerm;57654;51.434;5.984;2022-12-29T01:05:37;39.98;38.36;49.06;;
69620;Laerm;57654;51.434;5.984;2022-12-29T01:05:47;40.34;37.71;46.58;;
69620;Laerm;57654;51.434;5.984;2022-12-29T01:05:59;37.79;35.86;39.89;;
69620;Laerm;57654;51.434;5.984;2022-12-29T01:06:10;38.42;36.72;41.53;;
69620;Laerm;57654;51.434;5.984;2022-12-29T01:06:20;39.46;37.51;43.86;;
69620;Laerm;57654;51.434;5.984;2022-12-29T01:06:31;39.69;37.37;43.47;;
69620;Laerm;57654;51.434;5.984;2022-12-29T01:06:41;39.35;36.93;48.34;;
69620;Laerm;57654;51.434;5.984;2022-12-29T01:06:52;39.67;37.02;45.02;;
69620;Laerm;57654;51.434;5.984;2022-12-29T01:07:02;39.40;37.56;41.39;;
69620;Laerm;57654;51.434;5.984;2022-12-29T01:07:13;39.47;37.35;43.17;;
69620;Laerm;57654;51.434;5.984;2022-12-29T01:07:23;40.12;37.73;43.63;;
69620;Laerm;57654;51.434;5.984;2022-12-29T01:07:33;41.84;39.68;44.59;;
69620;Laerm;57654;51.434;5.984;2022-12-29T01:07:44;39.88;36.43;43.78;;
69620;Laerm;57654;51.434;5.984;2022-12-29T01:07:54;46.62;40.60;49.16;;
69620;Laerm;57654;51.434;5.984;2022-12-29T01:08:05;45.68;42.76;49.81;;
69620;Laerm;57654;51.434;5.984;2022-12-29T01:08:15;44.99;42.59;47.28;;
69620;Laerm;57654;51.434;5.984;2022-12-29T01:08:26;44.84;42.53;49.57;;
69620;Laerm;57654;51.434;5.984;2022-12-29T01:08:37;44.79;43.29;48.23;;
69620;Laerm;57654;51.434;5.984;2022-12-29T01:08:47;42.92;40.73;48.81;;
69620;Laerm;57654;51.434;5.984;2022-12-29T01:09:18;40.93;37.16;49.04;;
69620;Laerm;57654;51.434;5.984;2022-12-29T01:09:47;44.66;34.87;49.61;;
69620;Laerm;57654;51.434;5.984;2022-12-29T01:10:16;42.50;39.43;50.11;;
69620;Laerm;57654;51.434;5.984;2022-12-29T01:10:26;42.14;40.66;46.47;;
69620;Laerm;57654;51.434;5.984;2022-12-29T01:10:36;42.20;40.22;48.27;;
69620;Laerm;57654;51.434;5.984;2022-12-29T01:10:46;42.74;40.78;45.12;;
69620;Laerm;57654;51.434;5.984;2022-12-29T01:11:08;41.84;38.35;46.51;;
69620;Laerm;57654;51.434;5.984;2022-12-29T01:11:19;38.51;36.30;43.58;;
69620;Laerm;57654;51.434;5.984;2022-12-29T01:11:29;40.01;37.52;46.71;;
69620;Laerm;57654;51.434;5.984;2022-12-29T01:11:39;40.37;38.30;42.91;;
69620;Laerm;57654;51.434;5.984;2022-12-29T01:11:50;41.32;37.27;45.68;;
69620;Laerm;57654;51.434;5.984;2022-12-29T01:12:00;40.94;36.81;48.73;;
69620;Laerm;57654;51.434;5.984;2022-12-29T01:12:11;40.96;38.92;42.87;;
69620;Laerm;57654;51.434;5.984;2022-12-29T01:12:21;39.99;38.25;43.49;;
69620;Laerm;57654;51.434;5.984;2022-12-29T01:12:50;39.18;36.20;44.28;;
69620;Laerm;57654;51.434;5.984;2022-12-29T01:13:00;40.34;37.34;44.35;;
69620;Laerm;57654;51.434;5.984;2022-12-29T01:13:11;39.00;37.29;41.43;;
69620;Laerm;57654;51.434;5.984;2022-12-29T01:13:21;39.77;38.24;42.71;;
69620;Laerm;57654;51.434;5.984;2022-12-29T01:13:33;40.09;36.42;45.12;;
69620;Laerm;57654;51.434;5.984;2022-12-29T01:13:43;38.34;36.99;41.20;;
69620;Laerm;57654;51.434;5.984;2022-12-29T01:13:53;38.65;36.72;42.13;;
69620;Laerm;57654;51.434;5.984;2022-12-29T01:14:04;41.18;38.98;43.07;;
69620;Laerm;57654;51.434;5.984;2022-12-29T01:14:14;41.35;38.62;45.77;;
69620;Laerm;57654;51.434;5.984;2022-12-29T01:14:25;43.30;41.23;46.62;;
69620;Laerm;57654;51.434;5.984;2022-12-29T01:14:35;44.20;41.19;47.65;;
69620;Laerm;57654;51.434;5.984;2022-12-29T01:14:46;40.85;37.98;47.81;;
69620;Laerm;57654;51.434;5.984;2022-12-29T01:14:56;38.66;36.15;45.40;;
69620;Laerm;57654;51.434;5.984;2022-12-29T01:15:07;36.86;34.89;42.29;;
69620;Laerm;57654;51.434;5.984;2022-12-29T01:15:18;38.16;35.34;45.04;;
69620;Laerm;57654;51.434;5.984;2022-12-29T01:15:28;38.84;35.07;50.37;;
69620;Laerm;57654;51.434;5.984;2022-12-29T01:15:38;43.74;40.93;46.26;;
69620;Laerm;57654;51.434;5.984;2022-12-29T01:15:49;43.05;40.51;45.75;;
69620;Laerm;57654;51.434;5.984;2022-12-29T01:15:59;42.79;40.41;45.39;;
69620;Laerm;57654;51.434;5.984;2022-12-29T01:16:10;41.24;39.16;44.80;;
69620;Laerm;57654;51.434;5.984;2022-12-29T01:16:20;41.18;39.00;45.28;;
69620;Laerm;57654;51.434;5.984;2022-12-29T01:16:31;42.48;39.74;46.31;;
69620;Laerm;57654;51.434;5.984;2022-12-29T01:16:41;42.11;39.55;50.52;;
69620;Laerm;57654;51.434;5.984;2022-12-29T01:16:52;41.38;39.66;44.56;;
69620;Laerm;57654;51.434;5.984;2022-12-29T01:17:02;40.73;38.52;49.46;;
69620;Laerm;57654;51.434;5.984;2022-12-29T01:17:13;42.05;39.58;45.93;;
69620;Laerm;57654;51.434;5.984;2022-12-29T01:17:23;43.10;40.52;46.32;;
69620;Laerm;57654;51.434;5.984;2022-12-29T01:17:34;39.35;36.63;42.27;;
69620;Laerm;57654;51.434;5.984;2022-12-29T01:17:44;38.93;36.57;44.70;;
69620;Laerm;57654;51.434;5.984;2022-12-29T01:17:54;37.68;35.67;42.18;;
69620;Laerm;57654;51.434;5.984;2022-12-29T01:18:04;36.96;34.98;39.35;;
69620;Laerm;57654;51.434;5.984;2022-12-29T01:18:15;37.59;35.23;40.20;;
69620;Laerm;57654;51.434;5.984;2022-12-29T01:18:25;37.12;35.65;39.36;;
69620;Laerm;57654;51.434;5.984;2022-12-29T01:18:35;37.53;35.99;40.71;;
69620;Laerm;57654;51.434;5.984;2022-12-29T01:18:45;39.41;36.08;51.59;;
69620;Laerm;57654;51.434;5.984;2022-12-29T01:18:56;43.27;41.19;45.22;;
69620;Laerm;57654;51.434;5.984;2022-12-29T01:19:06;41.02;38.38;44.07;;
69620;Laerm;57654;51.434;5.984;2022-12-29T01:19:17;41.38;39.71;42.95;;
69620;Laerm;57654;51.434;5.984;2022-12-29T01:19:27;41.92;38.95;44.52;;
69620;Laerm;57654;51.434;5.984;2022-12-29T01:19:38;40.18;38.18;42.33;;